Time;durP1;ratioP1;P1;durP2;ratioP2;P2;SDS_P1;SDS_P2;PMS_P1;PMS_P2;Temp;Humidity;BMP_temperature;BMP_pressure;BME280_temperature;BME280_humidity;BME280_pressure;Samples;Min_cycle;Max_cycle;Signal;HPM_P1;HPM_P2
2023/03/18 00:02:17;;;;;;;12.23;7.82;;;11.60;99.90;;;;;;5117021;27;20039;-84
2023/03/18 00:04:43;;;;;;;10.57;7.95;;;11.60;99.90;;;;;;5117194;27;20407;-84
2023/03/18 00:07:09;;;;;;;12.40;7.68;;;11.60;99.90;;;;;;5112564;27;20042;-84
2023/03/18 00:09:35;;;;;;;10.50;7.60;;;11.60;99.90;;;;;;5128492;27;20085;-84
2023/03/18 00:12:02;;;;;;;11.57;7.85;;;11.60;99.90;;;;;;5111321;27;20046;-84
2023/03/18 00:14:28;;;;;;;12.98;8.43;;;12.10;99.90;;;;;;5110863;27;20118;-83
2023/03/18 00:16:54;;;;;;;10.88;7.70;;;11.50;99.90;;;;;;5115309;27;20047;-84
2023/03/18 00:19:22;;;;;;;10.10;7.30;;;11.50;99.90;;;;;;5112716;27;20501;-84
2023/03/18 00:21:48;;;;;;;10.50;7.75;;;11.50;99.90;;;;;;5114382;27;20518;-84
2023/03/18 00:24:14;;;;;;;10.48;7.80;;;11.50;99.90;;;;;;5120098;27;20044;-83
2023/03/18 00:26:39;;;;;;;13.73;7.82;;;11.50;99.90;;;;;;5109345;28;20043;-84
2023/03/18 00:29:05;;;;;;;10.98;7.95;;;11.40;99.90;;;;;;5115590;27;20045;-83
2023/03/18 00:31:30;;;;;;;10.48;7.57;;;11.40;99.90;;;;;;5144263;27;20130;-84
2023/03/18 00:33:56;;;;;;;15.68;8.10;;;11.30;99.90;;;;;;5105870;27;20058;-84
2023/03/18 00:36:24;;;;;;;11.55;7.40;;;11.30;99.90;;;;;;5096116;28;20039;-83
2023/03/18 00:38:56;;;;;;;11.45;8.20;;;11.20;99.90;;;;;;5110386;28;20043;-83
2023/03/18 00:41:25;;;;;;;13.40;8.55;;;11.30;99.90;;;;;;5112709;27;20047;-83
2023/03/18 00:43:51;;;;;;;12.82;8.40;;;11.20;99.90;;;;;;5096953;28;20039;-84
2023/03/18 00:46:29;;;;;;;10.48;8.27;;;11.20;99.90;;;;;;5101692;27;20035;-84
2023/03/18 00:48:59;;;;;;;10.82;8.23;;;11.20;99.90;;;;;;5111545;27;20041;-83
2023/03/18 00:51:27;;;;;;;15.60;8.77;;;11.20;99.90;;;;;;5115315;27;20118;-84
2023/03/18 00:53:55;;;;;;;13.65;9.05;;;11.20;99.90;;;;;;5091691;28;20398;-83
2023/03/18 00:56:22;;;;;;;11.30;8.50;;;11.10;99.90;;;;;;5114889;27;20039;-83
2023/03/18 00:58:49;;;;;;;14.20;9.00;;;11.10;99.90;;;;;;5114324;27;20094;-84
2023/03/18 01:01:16;;;;;;;13.60;9.95;;;11.00;99.90;;;;;;5118453;27;20039;-83
2023/03/18 01:03:43;;;;;;;11.57;8.98;;;11.00;99.90;;;;;;5091104;28;20039;-83
2023/03/18 01:06:11;;;;;;;13.23;9.93;;;11.00;99.90;;;;;;5095636;28;20135;-84
2023/03/18 01:08:38;;;;;;;16.88;10.68;;;10.90;99.90;;;;;;5118565;28;20059;-83
2023/03/18 01:11:05;;;;;;;12.88;10.25;;;10.80;99.90;;;;;;5107189;27;20036;-83
2023/03/18 01:13:30;;;;;;;16.17;10.20;;;10.80;99.90;;;;;;5114024;27;20076;-83
2023/03/18 01:15:56;;;;;;;15.85;10.50;;;10.80;99.90;;;;;;5114715;27;20035;-84
2023/03/18 01:18:23;;;;;;;15.73;10.98;;;10.70;99.90;;;;;;5091223;28;20111;-84
2023/03/18 01:20:49;;;;;;;16.02;11.88;;;10.70;99.90;;;;;;5109294;28;20498;-84
2023/03/18 01:23:15;;;;;;;15.75;11.55;;;10.60;99.90;;;;;;5093783;28;20039;-84
2023/03/18 01:25:42;;;;;;;17.63;11.73;;;10.60;99.90;;;;;;5114804;27;20035;-84
2023/03/18 01:28:08;;;;;;;19.33;12.43;;;10.60;99.90;;;;;;5098686;27;20122;-83
2023/03/18 01:30:34;;;;;;;17.48;12.75;;;10.50;99.90;;;;;;5112394;27;21351;-83
2023/03/18 01:33:01;;;;;;;23.52;14.07;;;10.50;99.90;;;;;;5116032;27;20118;-83
2023/03/18 01:35:27;;;;;;;19.08;14.15;;;10.50;99.90;;;;;;5107330;27;20031;-83
2023/03/18 01:37:53;;;;;;;19.70;14.15;;;10.50;99.90;;;;;;5134563;27;20494;-83
2023/03/18 01:40:19;;;;;;;21.58;15.27;;;10.40;99.90;;;;;;5114629;27;20125;-83
2023/03/18 01:42:59;;;;;;;20.42;15.35;;;10.80;99.90;;;;;;5139004;27;20043;-84
2023/03/18 01:45:28;;;;;;;22.25;16.02;;;10.40;99.90;;;;;;5119222;27;20039;-84
2023/03/18 01:47:56;;;;;;;22.73;17.02;;;10.40;99.90;;;;;;5103555;27;20071;-83
2023/03/18 01:50:26;;;;;;;23.38;17.45;;;10.40;99.90;;;;;;5111418;27;20035;-83
2023/03/18 01:52:56;;;;;;;24.75;17.60;;;10.40;99.90;;;;;;5110778;27;20043;-83
2023/03/18 01:55:25;;;;;;;25.88;18.95;;;10.30;99.90;;;;;;5110577;28;20076;-83
2023/03/18 01:57:51;;;;;;;26.40;19.27;;;10.40;99.90;;;;;;5111935;27;20538;-83
2023/03/18 02:00:18;;;;;;;26.63;18.33;;;10.40;99.90;;;;;;5112359;27;20091;-83
2023/03/18 02:02:46;;;;;;;24.88;18.65;;;10.30;99.90;;;;;;5108616;28;20554;-83
2023/03/18 02:05:16;;;;;;;29.52;21.40;;;10.30;99.90;;;;;;5111712;27;20398;-83
2023/03/18 02:07:43;;;;;;;29.75;21.60;;;10.30;99.90;;;;;;5091954;28;20042;-83
2023/03/18 02:10:13;;;;;;;28.63;21.15;;;10.30;99.90;;;;;;5093269;28;20483;-83
2023/03/18 02:12:42;;;;;;;28.15;21.65;;;10.30;99.90;;;;;;5118048;28;20031;-83
2023/03/18 02:15:12;;;;;;;31.83;22.05;;;10.30;99.90;;;;;;5109164;28;20105;-83
2023/03/18 02:17:41;;;;;;;34.22;22.88;;;10.30;99.90;;;;;;5111710;28;20459;-83
2023/03/18 02:20:12;;;;;;;30.00;21.60;;;10.30;99.90;;;;;;5090195;28;20032;-83
2023/03/18 02:22:42;;;;;;;31.67;22.95;;;10.30;99.90;;;;;;5109172;28;20036;-83
2023/03/18 02:25:26;;;;;;;29.35;21.27;;;10.20;99.90;;;;;;5117893;28;20040;-83
2023/03/18 02:28:00;;;;;;;30.17;22.00;;;10.20;99.90;;;;;;5084676;28;20039;-82
2023/03/18 02:30:43;;;;;;;29.58;21.83;;;10.20;99.90;;;;;;5096238;28;20379;-83
2023/03/18 02:33:10;;;;;;;32.42;23.15;;;10.20;99.90;;;;;;5110791;28;20550;-83
2023/03/18 02:35:36;;;;;;;33.58;23.23;;;10.10;99.90;;;;;;5112215;28;20576;-82
2023/03/18 02:38:03;;;;;;;31.55;24.05;;;10.10;99.90;;;;;;5111535;28;20050;-83
2023/03/18 02:40:37;;;;;;;28.92;22.30;;;10.10;99.90;;;;;;5108866;28;20522;-83
2023/03/18 02:43:23;;;;;;;30.58;23.80;;;10.00;99.90;;;;;;5087888;28;20032;-83
2023/03/18 02:46:05;;;;;;;31.92;23.70;;;10.00;99.90;;;;;;5108286;28;20618;-83
2023/03/18 02:48:39;;;;;;;31.15;23.35;;;10.00;99.90;;;;;;5095123;28;20460;-83
2023/03/18 02:51:06;;;;;;;28.98;23.52;;;9.90;99.90;;;;;;5138601;27;20039;-83
2023/03/18 02:53:32;;;;;;;34.67;24.98;;;9.90;99.90;;;;;;5108264;28;20031;-83
2023/03/18 02:55:57;;;;;;;28.13;23.90;;;9.90;99.90;;;;;;5094587;28;20151;-83
2023/03/18 02:58:23;;;;;;;32.58;24.50;;;9.80;99.90;;;;;;5120016;27;20120;-83
2023/03/18 03:00:48;;;;;;;31.83;23.58;;;9.80;99.90;;;;;;5115546;27;20039;-83
2023/03/18 03:03:15;;;;;;;30.40;23.75;;;9.70;99.90;;;;;;5110594;28;20499;-83
2023/03/18 03:05:40;;;;;;;33.08;24.63;;;9.70;99.90;;;;;;5116792;27;20108;-83
2023/03/18 03:08:06;;;;;;;32.05;22.75;;;9.70;99.90;;;;;;5107823;27;20494;-83
2023/03/18 03:10:32;;;;;;;32.78;23.83;;;9.60;99.90;;;;;;5103067;27;20035;-83
2023/03/18 03:12:58;;;;;;;33.83;23.77;;;9.60;99.90;;;;;;5110054;28;20066;-83
2023/03/18 03:15:23;;;;;;;33.78;23.23;;;9.60;99.90;;;;;;5098061;28;20043;-83
2023/03/18 03:17:49;;;;;;;34.00;23.20;;;9.60;99.90;;;;;;5094440;28;20040;-83
2023/03/18 03:20:16;;;;;;;31.08;23.10;;;9.50;99.90;;;;;;5118285;27;20099;-83
2023/03/18 03:22:43;;;;;;;31.83;24.13;;;9.50;99.90;;;;;;5114863;27;20123;-83
2023/03/18 03:25:09;;;;;;;35.28;23.88;;;9.50;99.90;;;;;;5114438;27;20098;-83
2023/03/18 03:27:36;;;;;;;28.73;22.48;;;9.50;99.90;;;;;;5099974;27;20032;-83
2023/03/18 03:30:08;;;;;;;36.60;24.00;;;9.50;99.90;;;;;;5115102;27;20031;-83
2023/03/18 03:32:34;;;;;;;29.17;22.42;;;9.50;99.90;;;;;;5107088;28;20036;-83
2023/03/18 03:35:00;;;;;;;29.20;22.75;;;9.50;99.90;;;;;;5118267;27;20039;-83
2023/03/18 03:37:26;;;;;;;33.15;23.27;;;9.40;99.90;;;;;;5092158;27;20066;-83
2023/03/18 03:39:52;;;;;;;34.90;23.35;;;9.40;99.90;;;;;;5114564;28;20078;-83
2023/03/18 03:42:18;;;;;;;32.70;23.27;;;9.40;99.90;;;;;;5097080;27;20035;-83
2023/03/18 03:44:44;;;;;;;30.25;22.88;;;9.40;99.90;;;;;;5089848;28;20032;-83
2023/03/18 03:47:10;;;;;;;34.95;24.85;;;9.30;99.90;;;;;;5090900;28;20452;-83
2023/03/18 03:49:36;;;;;;;33.00;24.60;;;9.40;99.90;;;;;;5113103;28;20036;-83
2023/03/18 03:52:01;;;;;;;34.10;23.88;;;9.40;99.90;;;;;;5109601;28;20032;-83
2023/03/18 03:54:27;;;;;;;36.35;24.58;;;9.40;99.90;;;;;;5137188;27;20047;-83
2023/03/18 03:56:53;;;;;;;32.28;23.75;;;9.40;99.90;;;;;;5122979;27;20514;-83
2023/03/18 03:59:20;;;;;;;33.40;24.00;;;9.40;99.90;;;;;;5094545;28;20083;-82
2023/03/18 04:01:46;;;;;;;36.95;24.52;;;9.40;99.90;;;;;;5116297;27;20044;-83
2023/03/18 04:04:12;;;;;;;35.20;24.40;;;9.40;99.90;;;;;;5107570;28;20035;-83
2023/03/18 04:06:38;;;;;;;32.33;24.13;;;9.30;99.90;;;;;;5113222;27;20058;-83
2023/03/18 04:09:03;;;;;;;32.65;23.92;;;9.30;99.90;;;;;;5112353;28;20036;-83
2023/03/18 04:11:29;;;;;;;37.58;23.63;;;9.30;99.90;;;;;;5101607;28;20048;-83
2023/03/18 04:13:55;;;;;;;36.22;24.63;;;9.30;99.90;;;;;;5113327;27;20043;-86
2023/03/18 04:16:22;;;;;;;34.53;24.05;;;9.30;99.90;;;;;;5109871;27;20490;-86
2023/03/18 04:18:47;;;;;;;30.75;23.17;;;9.30;99.90;;;;;;5109691;28;20031;-85
2023/03/18 04:21:13;;;;;;;34.65;23.80;;;9.30;99.90;;;;;;5111538;28;20407;-85
2023/03/18 04:23:39;;;;;;;30.75;22.40;;;9.30;99.90;;;;;;5096614;27;20036;-84
2023/03/18 04:26:05;;;;;;;31.00;22.67;;;9.20;99.90;;;;;;5116017;27;20036;-84
2023/03/18 04:28:31;;;;;;;33.53;22.60;;;9.30;99.90;;;;;;5107914;28;20548;-84
2023/03/18 04:30:57;;;;;;;32.78;22.35;;;9.20;99.90;;;;;;5093993;28;20050;-84
2023/03/18 04:33:23;;;;;;;32.92;23.15;;;9.20;99.90;;;;;;5100085;28;20027;-84
2023/03/18 04:35:48;;;;;;;30.75;22.80;;;9.30;99.90;;;;;;5105219;27;20032;-84
2023/03/18 04:38:14;;;;;;;30.23;21.58;;;9.20;99.90;;;;;;5133952;27;20081;-84
2023/03/18 04:40:41;;;;;;;30.30;21.83;;;9.20;99.90;;;;;;5102638;28;20126;-86
2023/03/18 04:43:08;;;;;;;32.10;21.77;;;9.20;99.90;;;;;;5088634;28;20036;-84
2023/03/18 04:45:34;;;;;;;36.13;21.33;;;9.20;99.90;;;;;;5095102;27;20055;-84
2023/03/18 04:48:00;;;;;;;31.65;21.65;;;9.20;99.90;;;;;;5119666;27;20035;-84
2023/03/18 04:50:27;;;;;;;30.35;21.58;;;9.30;99.90;;;;;;5111700;28;20028;-84
2023/03/18 04:52:53;;;;;;;30.77;22.02;;;9.20;99.90;;;;;;5094468;28;20410;-84
2023/03/18 04:55:20;;;;;;;29.95;21.02;;;9.20;99.90;;;;;;5123820;27;20039;-84
2023/03/18 04:57:47;;;;;;;34.53;21.90;;;9.20;99.90;;;;;;5112064;27;20042;-84
2023/03/18 05:00:20;;;;;;;32.65;22.52;;;9.30;99.90;;;;;;5077952;28;20445;-84
2023/03/18 05:02:46;;;;;;;30.85;20.23;;;9.30;99.90;;;;;;5105342;27;20039;-84
2023/03/18 05:05:12;;;;;;;32.90;21.45;;;9.30;99.90;;;;;;5091288;28;20039;-85
2023/03/18 05:07:38;;;;;;;29.30;20.48;;;9.30;99.90;;;;;;5081784;28;20032;-85
2023/03/18 05:10:05;;;;;;;30.73;21.02;;;9.20;99.90;;;;;;5098813;28;20484;-84
2023/03/18 05:12:31;;;;;;;31.20;21.27;;;9.30;99.90;;;;;;5103604;28;20040;-85
2023/03/18 05:14:57;;;;;;;34.10;21.70;;;9.30;99.90;;;;;;5091938;28;20088;-84
2023/03/18 05:17:23;;;;;;;32.15;22.08;;;9.20;99.90;;;;;;5093610;28;20040;-85
2023/03/18 05:19:48;;;;;;;31.75;22.08;;;9.20;99.90;;;;;;5102099;28;20044;-85
2023/03/18 05:22:16;;;;;;;33.80;21.70;;;9.20;99.90;;;;;;5110881;28;20532;-85
2023/03/18 05:24:42;;;;;;;32.70;21.70;;;9.20;99.90;;;;;;5111111;28;20459;-84
2023/03/18 05:27:09;;;;;;;31.20;21.48;;;9.30;99.90;;;;;;5084460;28;20036;-85
2023/03/18 05:29:37;;;;;;;32.40;22.05;;;9.30;99.90;;;;;;5134222;27;20036;-85
2023/03/18 05:32:05;;;;;;;31.15;21.35;;;9.30;99.90;;;;;;5110609;28;20039;-85
2023/03/18 05:34:32;;;;;;;34.08;22.25;;;9.20;99.90;;;;;;5103810;27;20088;-84
2023/03/18 05:36:57;;;;;;;31.88;20.40;;;9.20;99.90;;;;;;5132183;27;20035;-85
2023/03/18 05:39:23;;;;;;;38.17;22.85;;;9.30;99.90;;;;;;5096537;27;20114;-85
2023/03/18 05:41:48;;;;;;;34.70;22.35;;;9.30;99.90;;;;;;5109527;28;20042;-85
2023/03/18 05:44:14;;;;;;;39.72;23.40;;;9.30;99.90;;;;;;5116430;27;20042;-85
2023/03/18 05:46:40;;;;;;;33.08;21.50;;;9.20;99.90;;;;;;5093839;28;20040;-84
2023/03/18 05:49:07;;;;;;;41.67;24.02;;;9.20;99.90;;;;;;5103304;28;20051;-84
2023/03/18 05:51:33;;;;;;;35.55;22.98;;;9.20;99.90;;;;;;5120156;27;20036;-84
2023/03/18 05:53:58;;;;;;;36.33;23.30;;;9.10;99.90;;;;;;5124722;27;20085;-85
2023/03/18 05:56:24;;;;;;;33.95;22.80;;;9.10;99.90;;;;;;5111809;27;20036;-83
2023/03/18 05:58:50;;;;;;;35.58;23.10;;;9.10;99.90;;;;;;5105228;28;20115;-84
2023/03/18 06:01:18;;;;;;;38.53;23.88;;;9.10;99.90;;;;;;5106860;28;20028;-85
2023/03/18 06:03:44;;;;;;;41.65;24.27;;;9.10;99.90;;;;;;5089458;28;20027;-84
2023/03/18 06:06:10;;;;;;;41.17;24.75;;;9.20;99.90;;;;;;5093781;28;20036;-84
2023/03/18 06:08:36;;;;;;;38.25;24.13;;;9.20;99.90;;;;;;5092760;28;20080;-84
2023/03/18 06:11:02;;;;;;;39.90;25.23;;;9.20;99.90;;;;;;5093325;28;20039;-84
2023/03/18 06:13:28;;;;;;;34.95;24.15;;;9.20;99.90;;;;;;5094050;28;20042;-84
2023/03/18 06:15:59;;;;;;;35.80;24.63;;;9.20;99.90;;;;;;5110929;28;20411;-84
2023/03/18 06:18:25;;;;;;;35.97;23.58;;;9.20;99.90;;;;;;5108694;28;20036;-84
2023/03/18 06:20:51;;;;;;;36.22;24.27;;;9.30;99.90;;;;;;5092633;28;20039;-84
2023/03/18 06:23:17;;;;;;;36.08;23.42;;;9.30;99.90;;;;;;5119037;28;20509;-84
2023/03/18 06:25:43;;;;;;;36.25;23.58;;;9.30;99.90;;;;;;5108357;28;20166;-85
2023/03/18 06:28:08;;;;;;;35.78;23.50;;;9.30;99.90;;;;;;5108497;28;20292;-84
2023/03/18 06:30:34;;;;;;;33.72;23.77;;;9.40;99.90;;;;;;5108695;28;20071;-85
2023/03/18 06:32:59;;;;;;;35.78;23.90;;;9.40;99.90;;;;;;5098588;28;20036;-86
2023/03/18 06:35:26;;;;;;;34.63;23.30;;;9.40;99.90;;;;;;5096480;28;20106;-85
2023/03/18 06:37:53;;;;;;;32.20;23.30;;;9.40;99.90;;;;;;5101204;28;20052;-85
2023/03/18 06:40:19;;;;;;;38.30;24.20;;;9.40;99.90;;;;;;5098598;27;20314;-85
2023/03/18 06:42:45;;;;;;;36.92;23.95;;;9.50;99.90;;;;;;5096668;28;20101;-85
2023/03/18 06:45:11;;;;;;;33.10;23.75;;;9.50;99.90;;;;;;5107872;28;20126;-85
2023/03/18 06:47:37;;;;;;;35.05;23.42;;;9.50;99.90;;;;;;5101804;28;20028;-85
2023/03/18 06:50:03;;;;;;;34.78;23.42;;;9.50;99.90;;;;;;5107784;28;20032;-85
2023/03/18 06:52:29;;;;;;;33.92;23.42;;;9.60;99.90;;;;;;5142704;27;20031;-85
2023/03/18 06:54:54;;;;;;;32.95;23.55;;;9.60;99.90;;;;;;5111602;28;20546;-85
2023/03/18 06:57:20;;;;;;;32.75;24.00;;;9.60;99.90;;;;;;5111122;28;20039;-87
2023/03/18 06:59:46;;;;;;;35.25;23.38;;;9.60;99.90;;;;;;5117648;28;20057;-85
2023/03/18 07:02:12;;;;;;;36.60;24.25;;;9.60;99.90;;;;;;5113971;28;20040;-87
2023/03/18 07:04:38;;;;;;;36.65;24.42;;;9.60;99.90;;;;;;5108246;28;20046;-86
2023/03/18 07:07:04;;;;;;;42.05;24.98;;;9.70;99.90;;;;;;5096353;28;20035;-85
2023/03/18 07:09:32;;;;;;;40.53;24.83;;;9.80;99.90;;;;;;5091951;28;20039;-85
2023/03/18 07:11:59;;;;;;;34.72;24.20;;;9.90;99.90;;;;;;5105295;28;20039;-85
2023/03/18 07:14:25;;;;;;;31.70;23.42;;;10.10;99.90;;;;;;5106706;28;20036;-85
2023/03/18 07:16:50;;;;;;;34.88;23.42;;;10.20;99.90;;;;;;5108381;28;20045;-85
2023/03/18 07:19:17;;;;;;;35.35;23.98;;;10.20;99.90;;;;;;5107952;28;20118;-86
2023/03/18 07:21:45;;;;;;;34.28;22.55;;;10.20;99.90;;;;;;5136534;27;20035;-85
2023/03/18 07:24:11;;;;;;;34.42;24.00;;;10.20;99.90;;;;;;5105612;28;20040;-86
2023/03/18 07:26:37;;;;;;;34.83;23.08;;;10.30;99.90;;;;;;5142226;27;20043;-86
2023/03/18 07:29:03;;;;;;;36.53;22.80;;;10.40;99.90;;;;;;5111804;28;20027;-86
2023/03/18 07:31:29;;;;;;;34.42;23.02;;;10.40;99.90;;;;;;5113558;28;20528;-86
2023/03/18 07:33:56;;;;;;;32.53;22.35;;;10.40;99.90;;;;;;5093275;28;20107;-85
2023/03/18 07:36:22;;;;;;;36.03;23.52;;;10.50;99.90;;;;;;5119612;27;20376;-86
2023/03/18 07:38:47;;;;;;;36.17;23.90;;;10.50;99.90;;;;;;5093799;28;20096;-85
2023/03/18 07:41:13;;;;;;;32.58;23.58;;;10.60;99.90;;;;;;5091543;28;20131;-85
2023/03/18 07:43:39;;;;;;;33.83;24.15;;;10.60;99.90;;;;;;5144194;27;20035;-86
2023/03/18 07:46:05;;;;;;;37.25;24.25;;;10.70;99.90;;;;;;5123099;27;20024;-86
2023/03/18 07:48:32;;;;;;;34.13;23.75;;;10.70;99.90;;;;;;5090459;28;20073;-85
2023/03/18 07:50:59;;;;;;;32.80;24.15;;;10.80;99.90;;;;;;5095691;28;20043;-86
2023/03/18 07:53:25;;;;;;;35.13;24.55;;;10.80;99.90;;;;;;5111222;28;20084;-86
2023/03/18 07:55:50;;;;;;;33.40;23.92;;;10.90;99.90;;;;;;5112461;28;20108;-86
2023/03/18 07:58:16;;;;;;;30.75;22.83;;;10.80;99.90;;;;;;5138755;27;20088;-85
2023/03/18 08:00:41;;;;;;;36.80;23.98;;;10.90;99.90;;;;;;5087850;28;20128;-86
2023/03/18 08:03:08;;;;;;;32.70;23.55;;;10.90;99.90;;;;;;5133863;27;20114;-86
2023/03/18 08:05:33;;;;;;;28.83;22.60;;;10.90;99.90;;;;;;5112001;28;20071;-84
2023/03/18 08:08:01;;;;;;;33.75;23.30;;;10.90;99.90;;;;;;5110766;28;20525;-86
2023/03/18 08:10:27;;;;;;;36.05;24.33;;;10.90;99.90;;;;;;5138350;27;20027;-86
2023/03/18 08:12:53;;;;;;;33.97;23.50;;;10.90;99.90;;;;;;5091335;28;20116;-86
2023/03/18 08:15:19;;;;;;;32.67;22.42;;;11.00;99.90;;;;;;5109288;28;20324;-86
2023/03/18 08:17:45;;;;;;;29.70;22.83;;;11.00;99.90;;;;;;5100736;28;20035;-85
2023/03/18 08:20:11;;;;;;;34.00;23.88;;;11.00;99.90;;;;;;5138972;27;20047;-86
2023/03/18 08:22:36;;;;;;;32.60;24.10;;;11.00;99.90;;;;;;5094764;28;20513;-85
2023/03/18 08:25:03;;;;;;;30.23;22.88;;;11.00;99.90;;;;;;5137137;27;20036;-86
2023/03/18 08:27:29;;;;;;;29.63;22.33;;;11.00;99.90;;;;;;5108331;28;20610;-86
2023/03/18 08:29:54;;;;;;;33.78;22.95;;;11.00;99.90;;;;;;5106282;28;20073;-86
2023/03/18 08:32:20;;;;;;;29.52;23.02;;;11.00;99.90;;;;;;5142422;27;20376;-86
2023/03/18 08:34:46;;;;;;;31.05;22.38;;;11.00;99.90;;;;;;5085882;28;20035;-85
2023/03/18 08:37:13;;;;;;;34.53;21.92;;;11.00;99.90;;;;;;5111420;28;20064;-86
2023/03/18 08:39:40;;;;;;;31.90;22.63;;;11.00;99.90;;;;;;5090381;28;20461;-86
2023/03/18 08:42:06;;;;;;;28.73;22.02;;;11.00;99.90;;;;;;5106564;28;20039;-86
2023/03/18 08:44:32;;;;;;;36.10;23.20;;;11.30;99.90;;;;;;5111609;28;20035;-86
2023/03/18 08:46:57;;;;;;;31.70;23.77;;;11.00;99.90;;;;;;5095826;27;20046;-85
2023/03/18 08:49:24;;;;;;;32.78;23.45;;;11.00;99.90;;;;;;5093603;28;20031;-86
2023/03/18 08:51:50;;;;;;;33.92;24.15;;;11.00;99.90;;;;;;5099480;27;20065;-86
2023/03/18 08:54:16;;;;;;;33.47;23.15;;;11.00;99.90;;;;;;5111495;27;20031;-86
2023/03/18 08:56:41;;;;;;;30.27;22.33;;;10.90;99.90;;;;;;5127024;27;20040;-85
2023/03/18 08:59:07;;;;;;;31.88;23.40;;;10.90;99.90;;;;;;5098847;27;20036;-86
2023/03/18 09:01:33;;;;;;;32.15;23.13;;;10.90;99.90;;;;;;5088786;28;20051;-85
2023/03/18 09:03:59;;;;;;;33.80;24.15;;;10.90;99.90;;;;;;5085252;28;20040;-85
2023/03/18 09:06:26;;;;;;;33.08;24.10;;;11.00;99.90;;;;;;5099847;27;20049;-85
2023/03/18 09:08:52;;;;;;;32.72;24.30;;;11.00;99.90;;;;;;5107356;27;20110;-85
2023/03/18 09:11:17;;;;;;;35.97;25.25;;;11.00;99.90;;;;;;5103888;27;20115;-85
2023/03/18 09:13:43;;;;;;;33.17;24.38;;;11.10;99.90;;;;;;5080823;27;20032;-85
2023/03/18 09:16:09;;;;;;;34.60;24.13;;;11.20;99.90;;;;;;5101029;28;20581;-85
2023/03/18 09:18:35;;;;;;;36.53;24.38;;;11.30;99.90;;;;;;5105885;27;20047;-87
2023/03/18 09:21:02;;;;;;;34.63;24.63;;;11.40;99.90;;;;;;5100213;27;20035;-86
2023/03/18 09:23:27;;;;;;;32.97;24.85;;;11.50;99.90;;;;;;5087422;28;20436;-85
2023/03/18 09:25:53;;;;;;;36.10;25.70;;;11.70;99.90;;;;;;5130977;27;20039;-85
2023/03/18 09:28:19;;;;;;;33.85;24.88;;;11.80;99.90;;;;;;5102256;28;20043;-85
2023/03/18 09:30:45;;;;;;;35.08;25.80;;;11.90;99.90;;;;;;5126096;27;20028;-86
2023/03/18 09:33:12;;;;;;;36.38;24.92;;;12.00;99.90;;;;;;5100298;27;20087;-85
2023/03/18 09:35:41;;;;;;;31.25;24.58;;;12.10;99.90;;;;;;5100316;27;20023;-85
2023/03/18 09:38:09;;;;;;;31.35;23.42;;;12.30;99.90;;;;;;5083952;27;20039;-86
2023/03/18 09:40:42;;;;;;;31.75;23.80;;;12.40;99.90;;;;;;5105883;27;20071;-86
2023/03/18 09:43:33;;;;;;;31.92;23.90;;;12.50;99.90;;;;;;5096674;27;20110;-85
2023/03/18 09:46:39;;;;;;;34.85;25.13;;;12.70;99.90;;;;;;5099462;28;20036;-84
2023/03/18 09:49:22;;;;;;;32.95;24.90;;;12.80;99.90;;;;;;5103230;28;20043;-86
2023/03/18 09:51:48;;;;;;;32.10;25.92;;;13.00;99.90;;;;;;5087139;28;20036;-85
2023/03/18 09:54:30;;;;;;;33.08;25.23;;;13.20;99.90;;;;;;5099478;28;20503;-85
2023/03/18 09:56:57;;;;;;;30.88;24.58;;;13.20;99.90;;;;;;5103004;28;20174;-85
2023/03/18 09:59:28;;;;;;;33.42;25.20;;;13.30;99.90;;;;;;5087018;28;20039;-85
2023/03/18 10:01:55;;;;;;;31.98;24.77;;;13.50;99.90;;;;;;5105978;28;20031;-86
2023/03/18 10:04:32;;;;;;;34.13;25.85;;;13.80;99.90;;;;;;5103820;28;20107;-85
2023/03/18 10:07:12;;;;;;;31.20;24.48;;;13.90;99.90;;;;;;5085924;28;20054;-85
2023/03/18 10:09:45;;;;;;;32.00;24.08;;;14.00;99.90;;;;;;5106978;28;20052;-84
2023/03/18 10:12:34;;;;;;;29.48;23.38;;;14.10;99.90;;;;;;5099325;28;20032;-85
2023/03/18 10:15:12;;;;;;;28.95;23.40;;;14.20;99.90;;;;;;5103188;28;20040;-85
2023/03/18 10:17:48;;;;;;;30.88;21.63;;;14.30;99.90;;;;;;5103480;28;20061;-85
2023/03/18 10:20:31;;;;;;;30.40;22.20;;;14.20;99.90;;;;;;5105770;28;20491;-85
2023/03/18 10:23:24;;;;;;;28.65;22.02;;;14.10;99.90;;;;;;5124887;27;20048;-85
2023/03/18 10:25:56;;;;;;;33.95;24.70;;;14.00;99.90;;;;;;5083032;28;20078;-84
2023/03/18 10:28:39;;;;;;;30.98;22.50;;;14.00;99.90;;;;;;5086884;28;20041;-85
2023/03/18 10:31:32;;;;;;;28.98;22.40;;;14.30;99.90;;;;;;5134689;27;20107;-85
2023/03/18 10:34:05;;;;;;;27.85;21.92;;;14.60;99.90;;;;;;5099147;28;20040;-85
2023/03/18 10:37:00;;;;;;;33.72;24.63;;;14.80;99.90;;;;;;5107748;28;20079;-85
2023/03/18 10:39:27;;;;;;;28.88;21.80;;;15.00;99.90;;;;;;5102649;28;20066;-85
2023/03/18 10:41:56;;;;;;;25.55;20.85;;;15.20;99.90;;;;;;5102278;28;20032;-85
2023/03/18 10:44:35;;;;;;;27.42;20.45;;;15.40;99.90;;;;;;5087945;28;20052;-85
2023/03/18 10:47:07;;;;;;;23.58;18.88;;;15.60;99.90;;;;;;5105638;28;20044;-85
2023/03/18 10:49:37;;;;;;;23.23;18.50;;;15.80;99.90;;;;;;5103000;28;20043;-85
2023/03/18 10:52:12;;;;;;;19.98;16.27;;;16.00;99.90;;;;;;5090583;28;20161;-86
2023/03/18 10:54:41;;;;;;;19.05;16.02;;;15.70;99.90;;;;;;5086304;28;20116;-85
2023/03/18 10:57:14;;;;;;;20.50;16.55;;;15.70;99.90;;;;;;5098333;28;20041;-85
2023/03/18 10:59:43;;;;;;;21.67;17.63;;;15.40;99.90;;;;;;5135712;27;20040;-83
2023/03/18 11:02:15;;;;;;;22.92;17.92;;;15.20;99.90;;;;;;5106356;28;20071;-83
2023/03/18 11:04:48;;;;;;;23.00;18.30;;;15.20;99.90;;;;;;5104169;28;20110;-82
2023/03/18 11:07:20;;;;;;;24.17;18.73;;;15.50;99.90;;;;;;5115204;28;20063;-83
2023/03/18 11:09:46;;;;;;;23.08;18.50;;;15.80;99.90;;;;;;5136374;27;20520;-83
2023/03/18 11:12:17;;;;;;;17.88;12.70;;;16.00;99.90;;;;;;5100540;28;20115;-83
2023/03/18 11:14:50;;;;;;;15.13;12.18;;;16.20;99.90;;;;;;5129391;27;20156;-83
2023/03/18 11:17:28;;;;;;;15.10;11.88;;;16.50;99.90;;;;;;5089233;28;20038;-83
2023/03/18 11:20:23;;;;;;;15.48;12.75;;;16.70;99.90;;;;;;5108865;28;20062;-83
2023/03/18 11:22:51;;;;;;;19.70;13.77;;;16.90;99.90;;;;;;5109062;28;20059;-84
2023/03/18 11:25:28;;;;;;;20.98;15.20;;;16.80;99.90;;;;;;5110152;28;20403;-84
2023/03/18 11:28:03;;;;;;;17.05;13.00;;;16.70;99.90;;;;;;5111429;28;20384;-83
2023/03/18 11:30:34;;;;;;;16.20;12.65;;;16.50;99.90;;;;;;5106156;28;20116;-85
2023/03/18 11:33:09;;;;;;;14.65;11.60;;;16.20;99.90;;;;;;5106786;28;20511;-84
2023/03/18 11:35:59;;;;;;;15.90;10.63;;;16.00;99.90;;;;;;5102238;28;20036;-83
2023/03/18 11:38:27;;;;;;;14.68;10.85;;;15.70;99.90;;;;;;5108868;28;20383;-83
2023/03/18 11:41:12;;;;;;;16.50;11.25;;;15.70;99.90;;;;;;5089883;28;20036;-83
2023/03/18 11:43:38;;;;;;;13.70;10.15;;;15.60;99.90;;;;;;5112996;28;20047;-83
2023/03/18 11:46:07;;;;;;;19.05;11.65;;;15.40;99.90;;;;;;5107769;28;20040;-84
2023/03/18 11:48:38;;;;;;;18.90;14.30;;;15.40;99.90;;;;;;5086692;28;20069;-82
2023/03/18 11:51:30;;;;;;;17.50;14.45;;;15.20;99.90;;;;;;5104146;28;20032;-87
2023/03/18 11:54:32;;;;;;;21.08;14.80;;;15.20;99.90;;;;;;5110575;28;20552;-86
2023/03/18 11:57:07;;;;;;;19.60;14.77;;;15.40;99.90;;;;;;5103601;28;20114;-87
2023/03/18 12:00:07;;;;;;;20.40;13.40;;;15.60;99.90;;;;;;5109887;28;20559;-86
2023/03/18 12:03:04;;;;;;;17.40;13.32;;;15.50;99.90;;;;;;5145217;27;20040;-86
2023/03/18 12:05:48;;;;;;;21.35;14.00;;;15.40;99.90;;;;;;5107527;28;20036;-86
2023/03/18 12:08:32;;;;;;;16.77;11.88;;;15.60;99.90;;;;;;5086499;28;20518;-86
2023/03/18 12:11:23;;;;;;;16.08;12.27;;;16.20;99.90;;;;;;5101692;28;20036;-86
2023/03/18 12:14:02;;;;;;;18.48;13.30;;;16.60;99.90;;;;;;5106039;28;20142;-85
2023/03/18 12:16:55;;;;;;;18.02;12.32;;;16.70;99.90;;;;;;5111588;28;20036;-86
2023/03/18 12:19:39;;;;;;;18.90;13.32;;;16.40;99.90;;;;;;5106266;28;20027;-85
2023/03/18 12:22:44;;;;;;;18.10;12.43;;;16.70;99.90;;;;;;5090706;28;20399;-86
2023/03/18 12:25:21;;;;;;;;;;;17.10;99.90;;;;;;5066178;28;20043;-86
2023/03/18 12:27:52;;;;;;;19.38;14.40;;;16.90;99.90;;;;;;5101607;28;19920;-85
2023/03/18 12:30:43;;;;;;;18.17;13.40;;;17.00;99.90;;;;;;5095433;28;20085;-85
2023/03/18 12:33:37;;;;;;;14.75;10.98;;;16.80;99.90;;;;;;5106906;28;20039;-86
2023/03/18 12:36:22;;;;;;;14.45;10.75;;;16.60;99.90;;;;;;5104722;28;20044;-86
2023/03/18 12:39:15;;;;;;;14.50;11.18;;;16.40;99.90;;;;;;5079892;28;20028;-86
2023/03/18 12:41:59;;;;;;;12.07;9.35;;;16.40;99.90;;;;;;5111773;27;20043;-86
2023/03/18 12:44:44;;;;;;;13.88;9.75;;;16.80;99.90;;;;;;5116589;27;20411;-85